Time;durP1;ratioP1;P1;durP2;ratioP2;P2;SDS_P1;SDS_P2;PMS_P1;PMS_P2;Temp;Humidity;BMP_temperature;BMP_pressure;BME280_temperature;BME280_humidity;BME280_pressure;Samples;Min_cycle;Max_cycle;Signal;HPM_P1;HPM_P2
2024/03/21 00:00:10;;;;;;;8.00;5.97;;;9.70;99.90;;;;;;4992137;28;20040;-91
2024/03/21 00:02:38;;;;;;;8.05;5.78;;;9.70;99.90;;;;;;4995590;28;20033;-93
2024/03/21 00:05:06;;;;;;;6.38;5.75;;;9.70;99.90;;;;;;4993158;28;20521;-92
2024/03/21 00:07:32;;;;;;;7.18;5.72;;;9.60;99.90;;;;;;4990780;28;20079;-92
2024/03/21 00:09:58;;;;;;;7.68;5.88;;;9.50;99.90;;;;;;4993923;28;20025;-92
2024/03/21 00:12:24;;;;;;;7.90;5.18;;;9.50;99.90;;;;;;4992866;28;20027;-91
2024/03/21 00:14:52;;;;;;;7.43;5.72;;;9.40;99.90;;;;;;4994482;28;20037;-91
2024/03/21 00:17:18;;;;;;;7.10;5.18;;;9.50;99.90;;;;;;4994413;28;20066;-92
2024/03/21 00:19:43;;;;;;;6.38;5.78;;;9.30;99.90;;;;;;4989286;28;20092;-91
2024/03/21 00:22:09;;;;;;;7.93;5.30;;;9.30;99.90;;;;;;4996636;28;20014;-91
2024/03/21 00:24:38;;;;;;;8.82;5.80;;;9.40;99.90;;;;;;4996697;28;20042;-91
2024/03/21 00:27:07;;;;;;;6.88;5.95;;;9.40;99.90;;;;;;4997077;28;20027;-92
2024/03/21 00:29:33;;;;;;;7.00;5.35;;;9.50;99.90;;;;;;4997166;28;20030;-92
2024/03/21 00:32:00;;;;;;;6.80;4.88;;;9.50;99.90;;;;;;4989449;28;20050;-91
2024/03/21 00:34:26;;;;;;;6.05;4.57;;;9.40;99.90;;;;;;4995322;28;20093;-91
2024/03/21 00:36:52;;;;;;;5.40;4.35;;;9.30;99.90;;;;;;4997768;28;20030;-92
2024/03/21 00:39:20;;;;;;;8.82;4.47;;;9.20;99.90;;;;;;4997407;28;20049;-93
2024/03/21 00:41:47;;;;;;;6.10;5.28;;;9.20;99.90;;;;;;4991555;28;20112;-91
2024/03/21 00:44:12;;;;;;;6.68;5.75;;;9.10;99.90;;;;;;4995931;28;20468;-90
2024/03/21 00:46:38;;;;;;;10.88;4.78;;;9.10;99.90;;;;;;4997793;28;20023;-91
2024/03/21 00:49:08;;;;;;;6.80;5.10;;;9.10;99.90;;;;;;4996495;28;20022;-91
2024/03/21 00:51:34;;;;;;;8.35;5.82;;;9.10;99.90;;;;;;4995816;28;20030;-92
2024/03/21 00:54:00;;;;;;;6.57;5.20;;;9.10;99.90;;;;;;4995938;28;20026;-92
2024/03/21 00:56:26;;;;;;;6.78;4.95;;;9.10;99.90;;;;;;4993199;28;20035;-91
2024/03/21 00:58:54;;;;;;;8.95;6.32;;;9.10;99.90;;;;;;4996900;28;20041;-91
2024/03/21 01:01:21;;;;;;;10.57;5.97;;;9.10;99.90;;;;;;4993600;28;20125;-92
2024/03/21 01:03:46;;;;;;;10.23;6.95;;;9.20;99.90;;;;;;5004085;28;20459;-91
2024/03/21 01:06:12;;;;;;;9.15;6.82;;;9.10;99.90;;;;;;5009707;28;20026;-91
2024/03/21 01:08:38;;;;;;;8.13;6.57;;;9.10;99.90;;;;;;5008410;28;20041;-92
2024/03/21 01:11:03;;;;;;;8.70;6.13;;;9.20;99.90;;;;;;4995539;28;20030;-92
2024/03/21 01:13:29;;;;;;;7.07;5.95;;;9.20;99.90;;;;;;4998818;28;20041;-91
2024/03/21 01:15:55;;;;;;;9.50;7.32;;;9.20;99.90;;;;;;4995551;28;20038;-93
2024/03/21 01:18:34;;;;;;;10.15;5.95;;;9.20;99.90;;;;;;4995743;28;20033;-90
2024/03/21 01:21:02;;;;;;;8.88;6.65;;;9.20;99.90;;;;;;4995284;28;20417;-92
2024/03/21 01:23:29;;;;;;;9.13;6.18;;;9.20;99.90;;;;;;4994010;28;20026;-92
2024/03/21 01:25:54;;;;;;;11.20;7.70;;;9.30;99.90;;;;;;4997551;28;20046;-92
2024/03/21 01:28:20;;;;;;;8.77;6.78;;;9.30;99.90;;;;;;4991907;28;20022;-91
2024/03/21 01:30:46;;;;;;;9.30;6.25;;;9.40;99.90;;;;;;4990740;28;20027;-91
2024/03/21 01:33:11;;;;;;;10.48;5.43;;;9.40;99.90;;;;;;4995477;28;20377;-92
2024/03/21 01:35:37;;;;;;;10.10;5.85;;;9.50;99.90;;;;;;4996815;28;20106;-93
2024/03/21 01:38:06;;;;;;;8.52;5.57;;;9.40;99.90;;;;;;4992253;28;20061;-92
2024/03/21 01:40:36;;;;;;;7.25;5.45;;;9.40;99.90;;;;;;4993314;28;20392;-92
2024/03/21 01:43:05;;;;;;;9.38;5.90;;;9.30;99.90;;;;;;4992911;28;20022;-93
2024/03/21 01:45:32;;;;;;;10.43;7.40;;;9.20;99.90;;;;;;4992746;28;20409;-92
2024/03/21 01:47:58;;;;;;;8.30;5.78;;;9.20;99.90;;;;;;4997283;28;20070;-91
2024/03/21 01:50:25;;;;;;;7.95;6.05;;;9.30;99.90;;;;;;4997244;28;20061;-92
2024/03/21 01:52:51;;;;;;;8.38;5.40;;;9.30;99.90;;;;;;4993746;28;20030;-92
2024/03/21 01:55:19;;;;;;;8.27;5.82;;;9.30;99.90;;;;;;4994582;28;20034;-92
2024/03/21 01:57:49;;;;;;;10.52;6.30;;;9.20;99.90;;;;;;4994758;28;20030;-92
2024/03/21 02:00:15;;;;;;;6.10;4.75;;;9.20;99.90;;;;;;4992659;28;20115;-90
2024/03/21 02:02:40;;;;;;;10.52;6.60;;;9.20;99.90;;;;;;4992130;28;20544;-92
2024/03/21 02:05:07;;;;;;;9.90;7.13;;;9.20;99.90;;;;;;4992366;28;20061;-90
2024/03/21 02:07:33;;;;;;;7.50;5.35;;;9.20;99.90;;;;;;4994170;28;20030;-92
2024/03/21 02:09:59;;;;;;;8.77;6.32;;;9.20;99.90;;;;;;4995426;28;20022;-93
2024/03/21 02:12:47;;;;;;;9.23;6.13;;;9.40;99.90;;;;;;4993844;28;20061;-92
2024/03/21 02:15:14;;;;;;;8.40;5.72;;;9.40;99.90;;;;;;4988970;28;20038;-92
2024/03/21 02:17:40;;;;;;;8.10;6.35;;;9.50;99.90;;;;;;4996486;28;20034;-90
2024/03/21 02:20:08;;;;;;;9.32;6.28;;;9.50;99.90;;;;;;4991675;28;20034;-91
2024/03/21 02:22:37;;;;;;;8.43;6.43;;;9.60;99.90;;;;;;4991918;28;20117;-92
2024/03/21 02:25:09;;;;;;;8.45;6.13;;;9.70;99.90;;;;;;4995687;28;20018;-92
2024/03/21 02:27:36;;;;;;;9.27;5.65;;;9.70;99.90;;;;;;4995534;28;20022;-92
2024/03/21 02:30:03;;;;;;;7.40;5.63;;;9.60;99.90;;;;;;4994618;28;20021;-90
2024/03/21 02:32:29;;;;;;;9.10;6.28;;;9.60;99.90;;;;;;4994835;28;20058;-92
2024/03/21 02:34:55;;;;;;;6.88;5.45;;;9.60;99.90;;;;;;4996083;28;20496;-93
2024/03/21 02:37:21;;;;;;;9.10;6.07;;;9.50;99.90;;;;;;4993009;28;20496;-92
2024/03/21 02:39:50;;;;;;;8.90;6.30;;;9.50;99.90;;;;;;4995484;28;20064;-93
2024/03/21 02:42:20;;;;;;;8.45;6.15;;;9.50;99.90;;;;;;4993531;28;20042;-91
2024/03/21 02:44:50;;;;;;;6.75;6.00;;;9.40;99.90;;;;;;4988826;28;20031;-94
2024/03/21 02:47:19;;;;;;;9.10;5.13;;;9.50;99.90;;;;;;4993234;28;20026;-92
2024/03/21 02:49:52;;;;;;;8.25;6.25;;;9.50;99.90;;;;;;4994043;28;20445;-92
2024/03/21 02:52:18;;;;;;;12.05;7.47;;;9.50;99.90;;;;;;4990662;28;20026;-93
2024/03/21 02:54:44;;;;;;;8.68;5.93;;;9.50;99.90;;;;;;4993031;28;20029;-94
2024/03/21 02:57:11;;;;;;;9.18;5.25;;;9.50;99.90;;;;;;4995778;28;20022;-92
2024/03/21 02:59:37;;;;;;;7.63;6.50;;;9.50;99.90;;;;;;4994905;28;20057;-93
2024/03/21 03:02:06;;;;;;;7.80;5.75;;;9.50;99.90;;;;;;4996037;28;20027;-91
2024/03/21 03:04:32;;;;;;;9.23;6.72;;;9.50;99.90;;;;;;4993554;28;20090;-91
2024/03/21 03:06:58;;;;;;;9.07;6.82;;;9.50;99.90;;;;;;4995485;28;20022;-92
2024/03/21 03:09:24;;;;;;;9.13;7.32;;;9.50;99.90;;;;;;4994686;28;20030;-92
2024/03/21 03:11:50;;;;;;;9.85;7.60;;;9.60;99.90;;;;;;4992460;28;20493;-91
2024/03/21 03:14:16;;;;;;;9.77;6.75;;;9.70;99.90;;;;;;4992140;28;20208;-91
2024/03/21 03:16:42;;;;;;;10.50;9.02;;;9.70;99.90;;;;;;4994533;28;20030;-91
2024/03/21 03:19:07;;;;;;;10.60;8.10;;;9.70;99.90;;;;;;4993424;28;21550;-91
2024/03/21 03:21:36;;;;;;;13.57;7.45;;;9.70;99.90;;;;;;4995414;28;20022;-92
2024/03/21 03:24:02;;;;;;;9.45;7.75;;;9.80;99.90;;;;;;4993308;28;20034;-92
2024/03/21 03:26:27;;;;;;;13.60;9.63;;;9.80;99.90;;;;;;4991161;28;20049;-91
2024/03/21 03:29:01;;;;;;;11.18;8.63;;;9.80;99.90;;;;;;4991825;28;20051;-92
2024/03/21 03:31:27;;;;;;;15.15;9.88;;;9.80;99.90;;;;;;4991716;28;20080;-93
2024/03/21 03:36:44;;;;;;;12.80;9.02;;;9.90;99.90;;;;;;4994917;28;20038;-90
2024/03/21 03:39:13;;;;;;;11.98;9.82;;;9.80;99.90;;;;;;4993219;28;20030;-92
2024/03/21 03:41:39;;;;;;;13.65;8.68;;;9.80;99.90;;;;;;4993607;28;20026;-92
2024/03/21 03:44:05;;;;;;;11.95;7.68;;;9.80;99.90;;;;;;4994788;28;20023;-91
2024/03/21 03:46:31;;;;;;;11.15;8.60;;;9.90;99.90;;;;;;4993188;28;20077;-93
2024/03/21 03:48:57;;;;;;;10.43;8.40;;;9.80;99.90;;;;;;4994644;28;20018;-91
2024/03/21 03:51:22;;;;;;;15.27;7.93;;;9.80;99.90;;;;;;4992303;28;20030;-91
2024/03/21 03:53:49;;;;;;;14.05;8.25;;;9.80;99.90;;;;;;4991160;28;20022;-92
2024/03/21 03:56:15;;;;;;;10.98;8.48;;;9.80;99.90;;;;;;4993763;28;20038;-91
2024/03/21 03:58:40;;;;;;;11.40;8.18;;;9.80;99.90;;;;;;4993662;28;20034;-92
2024/03/21 04:01:07;;;;;;;9.85;8.23;;;9.80;99.90;;;;;;4993175;28;20112;-92
2024/03/21 04:03:32;;;;;;;11.13;8.68;;;9.70;99.90;;;;;;4994476;28;20027;-92
2024/03/21 04:06:02;;;;;;;9.32;6.82;;;9.70;99.90;;;;;;4996841;28;20022;-92
2024/03/21 04:08:31;;;;;;;9.57;7.13;;;9.60;99.90;;;;;;4997000;28;20029;-92
2024/03/21 04:10:58;;;;;;;10.45;7.55;;;9.60;99.90;;;;;;4995926;28;20071;-91
2024/03/21 04:13:25;;;;;;;10.95;7.05;;;9.60;99.90;;;;;;4997884;28;20039;-92
2024/03/21 04:15:53;;;;;;;10.70;7.57;;;9.70;99.90;;;;;;4996898;28;20026;-91
2024/03/21 04:18:21;;;;;;;10.30;7.65;;;9.60;99.90;;;;;;4995909;28;20030;-89
2024/03/21 04:20:52;;;;;;;10.32;7.85;;;9.70;99.90;;;;;;4992890;28;20022;-91
2024/03/21 04:23:18;;;;;;;12.55;8.45;;;9.60;99.90;;;;;;4989533;28;20022;-90
2024/03/21 04:25:46;;;;;;;13.77;8.45;;;9.60;99.90;;;;;;4998126;28;20026;-90
2024/03/21 04:28:12;;;;;;;23.58;9.75;;;9.60;99.90;;;;;;4997299;28;20034;-92
2024/03/21 04:30:40;;;;;;;16.45;9.07;;;9.60;99.90;;;;;;4998913;28;20031;-93
2024/03/21 04:33:05;;;;;;;15.32;9.32;;;9.50;99.90;;;;;;4998968;28;20311;-92
2024/03/21 04:35:33;;;;;;;16.67;9.25;;;9.50;99.90;;;;;;4997215;28;20033;-93
2024/03/21 04:38:00;;;;;;;;;;;9.40;99.90;;;;;;4990600;28;20507;-91
2024/03/21 04:40:25;;;;;;;14.70;9.85;;;9.50;99.90;;;;;;4995543;28;19918;-92
2024/03/21 04:42:51;;;;;;;13.45;9.48;;;9.50;99.90;;;;;;4994257;28;20077;-90
2024/03/21 04:45:20;;;;;;;16.08;10.90;;;9.60;99.90;;;;;;4995247;28;20054;-92
2024/03/21 04:47:46;;;;;;;15.60;9.43;;;9.60;99.90;;;;;;4996645;28;20023;-92
2024/03/21 04:50:12;;;;;;;19.73;11.13;;;9.60;99.90;;;;;;4995331;28;20493;-90
2024/03/21 04:52:37;;;;;;;14.98;11.40;;;9.60;99.90;;;;;;4994548;28;20045;-90
2024/03/21 04:55:03;;;;;;;19.17;11.63;;;9.70;99.90;;;;;;4995234;28;20025;-91
2024/03/21 04:57:29;;;;;;;16.92;11.25;;;9.70;99.90;;;;;;4997780;28;20026;-89
2024/03/21 04:59:55;;;;;;;15.05;11.20;;;9.80;99.90;;;;;;4990782;28;20088;-91
2024/03/21 05:02:21;;;;;;;18.02;11.75;;;9.70;99.90;;;;;;4994129;28;20100;-90
2024/03/21 05:04:48;;;;;;;16.58;12.23;;;9.70;99.90;;;;;;4998315;28;20493;-90
2024/03/21 05:07:14;;;;;;;15.75;11.88;;;9.80;99.90;;;;;;4998018;28;20105;-92
2024/03/21 05:09:39;;;;;;;19.98;10.85;;;9.80;99.90;;;;;;4997866;28;20493;-91
2024/03/21 05:12:06;;;;;;;15.82;11.30;;;9.90;99.90;;;;;;4998422;28;20105;-90
2024/03/21 05:14:34;;;;;;;14.23;10.25;;;9.80;99.90;;;;;;4998651;28;20061;-91
2024/03/21 05:17:01;;;;;;;17.33;11.25;;;9.80;99.90;;;;;;4997217;28;20057;-93
2024/03/21 05:19:27;;;;;;;14.77;10.32;;;9.80;99.90;;;;;;4993433;28;20035;-91
2024/03/21 05:21:53;;;;;;;14.25;10.70;;;9.80;99.90;;;;;;4996935;28;20069;-91
2024/03/21 05:24:18;;;;;;;16.48;9.73;;;9.80;99.90;;;;;;4997871;28;20031;-92
2024/03/21 05:26:44;;;;;;;16.65;10.38;;;9.80;99.90;;;;;;4997286;28;20033;-90
2024/03/21 05:29:10;;;;;;;15.00;9.50;;;9.80;99.90;;;;;;4996300;28;20023;-91
2024/03/21 05:31:35;;;;;;;12.75;9.25;;;9.80;99.90;;;;;;5004346;28;20034;-93
2024/03/21 05:34:01;;;;;;;14.57;11.10;;;9.80;99.90;;;;;;5001273;28;20046;-91
2024/03/21 05:36:27;;;;;;;16.88;10.55;;;9.80;99.90;;;;;;5004754;28;20054;-90
2024/03/21 05:38:53;;;;;;;16.73;10.73;;;9.80;99.90;;;;;;4994327;28;20030;-91
2024/03/21 05:41:18;;;;;;;30.35;12.05;;;9.80;99.90;;;;;;4986165;28;20491;-91
2024/03/21 05:43:44;;;;;;;15.30;10.68;;;9.80;99.90;;;;;;4992124;28;20421;-90
2024/03/21 05:46:10;;;;;;;16.75;11.52;;;9.80;99.90;;;;;;4997470;28;20374;-91
2024/03/21 05:48:35;;;;;;;18.73;11.18;;;9.90;99.90;;;;;;4998467;28;20374;-90
2024/03/21 05:51:02;;;;;;;14.90;10.65;;;10.00;99.90;;;;;;4994073;28;20026;-91
2024/03/21 05:53:29;;;;;;;17.35;11.02;;;10.00;99.90;;;;;;4991375;28;20428;-91
2024/03/21 05:56:04;;;;;;;15.73;10.00;;;10.10;99.90;;;;;;4997417;28;20038;-89
2024/03/21 05:58:34;;;;;;;16.25;10.57;;;10.20;99.90;;;;;;4993772;28;20027;-92
2024/03/21 06:01:22;;;;;;;14.88;10.70;;;10.20;99.90;;;;;;4997420;28;20026;-92
2024/03/21 06:03:48;;;;;;;16.83;10.90;;;10.30;99.90;;;;;;4984773;28;20473;-91
2024/03/21 06:06:15;;;;;;;13.82;10.00;;;10.30;99.90;;;;;;4993753;28;20508;-91
2024/03/21 06:08:44;;;;;;;13.43;10.00;;;10.30;99.90;;;;;;4991210;28;20026;-90
2024/03/21 06:11:13;;;;;;;13.60;9.57;;;10.40;99.90;;;;;;4995921;28;20057;-95
2024/03/21 06:13:41;;;;;;;13.75;9.80;;;10.40;99.90;;;;;;4998442;28;20026;-92
2024/03/21 06:16:07;;;;;;;15.18;10.70;;;10.50;99.90;;;;;;4997274;28;20041;-93
2024/03/21 06:18:32;;;;;;;16.00;9.98;;;10.50;99.90;;;;;;4997545;28;20034;-93
2024/03/21 06:20:58;;;;;;;17.08;10.95;;;10.50;99.90;;;;;;4996286;28;20030;-90
2024/03/21 06:23:27;;;;;;;14.40;8.65;;;10.60;99.90;;;;;;4997882;28;20055;-94
2024/03/21 06:25:52;;;;;;;15.15;10.73;;;10.60;99.90;;;;;;4998298;28;20018;-92
2024/03/21 06:28:18;;;;;;;15.57;9.98;;;10.60;99.90;;;;;;4997496;28;20077;-91
2024/03/21 06:30:44;;;;;;;14.65;9.15;;;10.70;99.90;;;;;;4995199;28;20018;-91
2024/03/21 06:33:10;;;;;;;13.57;9.88;;;10.70;99.90;;;;;;4999091;28;20488;-92
2024/03/21 06:35:41;;;;;;;15.25;9.48;;;10.80;99.90;;;;;;5003119;28;20030;-94
2024/03/21 06:38:07;;;;;;;13.52;8.85;;;10.80;99.90;;;;;;5006039;28;20478;-90
2024/03/21 06:40:42;;;;;;;13.45;9.05;;;10.80;99.90;;;;;;5016038;28;20030;-93
2024/03/21 06:43:09;;;;;;;13.15;9.25;;;10.90;99.90;;;;;;5008657;28;20089;-95
2024/03/21 06:45:36;;;;;;;13.85;9.40;;;11.00;99.90;;;;;;4998970;28;20113;-94
2024/03/21 06:48:05;;;;;;;10.75;9.13;;;11.00;99.90;;;;;;4997485;28;20092;-92
2024/03/21 06:50:41;;;;;;;12.23;8.10;;;11.10;99.90;;;;;;4996483;28;20026;-92
2024/03/21 06:53:17;;;;;;;11.40;8.43;;;11.10;99.90;;;;;;4990134;28;20042;-93
2024/03/21 06:56:03;;;;;;;13.82;9.75;;;11.20;99.90;;;;;;4999728;28;20649;-94
2024/03/21 06:58:30;;;;;;;14.80;8.77;;;11.30;99.90;;;;;;4996696;28;20105;-92
2024/03/21 07:00:56;;;;;;;14.40;8.13;;;11.30;99.90;;;;;;4996098;28;20367;-91
2024/03/21 07:03:21;;;;;;;12.98;9.10;;;11.40;99.90;;;;;;4996397;28;20109;-92
2024/03/21 07:05:51;;;;;;;16.88;8.43;;;11.50;99.90;;;;;;4995584;28;20022;-93
2024/03/21 07:08:17;;;;;;;11.57;7.97;;;11.50;99.90;;;;;;4990011;28;20030;-93
2024/03/21 07:10:42;;;;;;;10.80;7.90;;;11.60;99.90;;;;;;4997311;28;20628;-93
2024/03/21 07:13:11;;;;;;;12.95;8.23;;;11.60;99.90;;;;;;5000190;28;20788;-92
2024/03/21 07:15:44;;;;;;;13.90;9.18;;;11.60;99.90;;;;;;5000888;28;20131;-94
2024/03/21 07:18:12;;;;;;;11.50;8.73;;;11.60;99.90;;;;;;4991812;28;20037;-94
2024/03/21 07:20:40;;;;;;;15.75;8.52;;;11.60;99.90;;;;;;4999324;28;20041;-93
2024/03/21 07:23:07;;;;;;;20.35;8.93;;;11.60;99.90;;;;;;4997856;28;20085;-95
2024/03/21 07:25:40;;;;;;;10.90;7.40;;;11.70;99.90;;;;;;4997877;28;20025;-93
2024/03/21 07:28:12;;;;;;;13.52;8.95;;;11.70;99.90;;;;;;4997931;28;20042;-94
2024/03/21 07:30:51;;;;;;;11.32;7.35;;;11.90;99.90;;;;;;4999320;28;20034;-92
2024/03/21 07:33:19;;;;;;;11.90;7.13;;;12.00;99.90;;;;;;5001941;28;20061;-93
2024/03/21 07:35:55;;;;;;;12.85;6.38;;;12.10;99.90;;;;;;4999334;28;20049;-91
2024/03/21 07:38:22;;;;;;;8.95;6.32;;;12.20;99.90;;;;;;4997824;28;20042;-91
2024/03/21 07:40:58;;;;;;;9.10;6.53;;;12.30;99.90;;;;;;4998459;28;20031;-92
2024/03/21 07:43:31;;;;;;;8.52;5.43;;;12.40;99.90;;;;;;4979351;28;20018;-91
2024/03/21 07:45:57;;;;;;;12.10;6.60;;;12.50;99.90;;;;;;4950508;28;20027;-90
2024/03/21 07:48:30;;;;;;;10.77;6.90;;;12.70;99.90;;;;;;4958383;28;20065;-93
2024/03/21 07:50:56;;;;;;;8.98;6.57;;;12.70;99.90;;;;;;4960968;28;20033;-90
2024/03/21 07:53:22;;;;;;;12.68;7.20;;;12.80;99.90;;;;;;4985266;28;20036;-91
2024/03/21 07:55:48;;;;;;;10.13;5.95;;;12.90;99.90;;;;;;4969185;28;20050;-91
2024/03/21 07:58:13;;;;;;;11.05;7.63;;;12.90;99.90;;;;;;4970186;28;20041;-89
2024/03/21 08:00:39;;;;;;;10.60;6.80;;;12.90;99.90;;;;;;4971869;28;20034;-91
2024/03/21 08:03:04;;;;;;;9.90;7.15;;;12.90;99.90;;;;;;4966464;28;20037;-90
2024/03/21 08:05:37;;;;;;;10.93;6.80;;;13.00;99.90;;;;;;4987212;28;20026;-91
2024/03/21 08:08:03;;;;;;;9.00;6.03;;;13.00;99.90;;;;;;4971330;28;20069;-90
2024/03/21 08:10:29;;;;;;;11.00;6.85;;;12.90;99.90;;;;;;4962427;28;20497;-90
2024/03/21 08:12:55;;;;;;;11.82;6.80;;;12.90;99.90;;;;;;4955495;28;20030;-91
2024/03/21 08:15:21;;;;;;;12.23;7.15;;;13.00;99.90;;;;;;4964357;28;20030;-90
2024/03/21 08:17:46;;;;;;;11.43;7.20;;;13.00;99.90;;;;;;4980099;28;20038;-90
2024/03/21 08:20:12;;;;;;;13.13;7.45;;;13.20;99.90;;;;;;4970717;28;20031;-90
2024/03/21 08:22:41;;;;;;;12.85;8.73;;;13.20;99.90;;;;;;4922837;28;20058;-93
2024/03/21 08:25:25;;;;;;;12.38;6.88;;;13.30;99.90;;;;;;4934941;28;20026;-93
2024/03/21 08:27:51;;;;;;;13.40;7.55;;;13.20;99.90;;;;;;4933895;28;20433;-93
2024/03/21 08:30:53;;;;;;;11.63;8.48;;;13.30;98.80;;;;;;4934129;28;20912;-93
2024/03/21 08:33:28;;;;;;;13.82;7.57;;;13.30;99.00;;;;;;4936677;28;20115;-94
2024/03/21 08:36:32;;;;;;;17.05;9.52;;;13.50;99.00;;;;;;4941246;28;20081;-92
2024/03/21 08:39:17;;;;;;;;;;;;;;;;;;;;;
2024/03/21 08:42:04;;;;;;;11.43;8.30;;;13.90;97.90;;;;;;4928486;28;20039;-92
2024/03/21 08:44:35;;;;;;;13.27;8.88;;;14.20;93.70;;;;;;4939846;28;20037;-92
2024/03/21 08:47:04;;;;;;;11.77;8.23;;;14.00;93.80;;;;;;4903760;28;20066;-90
2024/03/21 08:49:29;;;;;;;13.30;8.38;;;14.10;93.20;;;;;;4930948;28;20485;-91
2024/03/21 08:51:56;;;;;;;15.07;8.77;;;14.30;93.10;;;;;;4921401;28;20030;-92
2024/03/21 08:54:33;;;;;;;11.68;8.35;;;14.30;91.60;;;;;;4953544;28;20651;-89
2024/03/21 08:57:01;;;;;;;13.23;8.68;;;14.50;93.40;;;;;;4960635;28;20122;-89
2024/03/21 08:59:27;;;;;;;14.63;8.40;;;14.50;91.30;;;;;;4983156;28;20034;-91
2024/03/21 09:01:53;;;;;;;12.02;7.93;;;14.40;92.40;;;;;;4955443;28;20173;-92
2024/03/21 09:04:39;;;;;;;13.70;8.55;;;14.40;92.20;;;;;;4941963;28;20174;-91
2024/03/21 09:07:07;;;;;;;13.95;9.60;;;14.20;93.50;;;;;;4941388;28;20030;-92
2024/03/21 09:09:36;;;;;;;15.57;8.80;;;14.10;92.30;;;;;;4938085;28;20441;-91
2024/03/21 09:12:03;;;;;;;14.88;8.60;;;14.20;92.30;;;;;;4946175;28;20057;-92
2024/03/21 09:14:29;;;;;;;16.15;9.45;;;14.30;92.70;;;;;;4979660;28;20069;-90
2024/03/21 09:16:54;;;;;;;13.93;8.40;;;14.30;92.30;;;;;;4958168;28;20054;-90
2024/03/21 09:19:20;;;;;;;14.05;8.45;;;14.50;92.90;;;;;;4951817;28;20130;-92
2024/03/21 09:21:47;;;;;;;13.40;8.80;;;14.70;90.90;;;;;;4947341;28;20039;-91
2024/03/21 09:24:13;;;;;;;16.50;8.70;;;15.00;90.80;;;;;;4949658;28;20022;-90
2024/03/21 09:26:42;;;;;;;13.70;8.73;;;15.10;87.20;;;;;;4982661;28;20026;-91
2024/03/21 09:29:08;;;;;;;13.20;7.65;;;15.20;87.70;;;;;;4933219;28;20484;-91
2024/03/21 09:31:35;;;;;;;11.80;9.75;;;15.20;86.80;;;;;;4945622;28;20030;-92
2024/03/21 09:34:01;;;;;;;14.90;8.90;;;15.20;87.70;;;;;;4939350;28;20026;-91
2024/03/21 09:36:30;;;;;;;14.82;8.60;;;15.30;85.30;;;;;;4945982;28;20034;-92
2024/03/21 09:39:01;;;;;;;14.93;9.18;;;15.10;86.00;;;;;;4964030;28;20041;-92
2024/03/21 09:41:27;;;;;;;17.58;9.93;;;15.10;86.90;;;;;;4981708;28;20030;-91
2024/03/21 09:44:02;;;;;;;12.93;7.75;;;15.20;87.50;;;;;;4944368;28;20018;-94
2024/03/21 09:46:36;;;;;;;11.85;8.45;;;15.40;84.70;;;;;;4948272;28;20424;-91
2024/03/21 09:49:02;;;;;;;;;;;15.40;85.50;;;;;;4946299;28;20034;-92
2024/03/21 09:51:28;;;;;;;15.80;8.57;;;15.50;87.00;;;;;;4952901;28;19913;-91
2024/03/21 09:54:02;;;;;;;14.43;8.63;;;15.80;86.60;;;;;;4955714;28;20448;-91
2024/03/21 09:56:28;;;;;;;23.48;8.85;;;15.70;83.10;;;;;;4974741;28;20436;-92
2024/03/21 09:58:54;;;;;;;12.18;8.00;;;15.80;83.90;;;;;;4944208;28;20101;-91
2024/03/21 10:01:26;;;;;;;12.23;7.72;;;16.10;84.30;;;;;;4928965;28;20125;-92
2024/03/21 10:03:57;;;;;;;11.07;7.93;;;16.40;81.30;;;;;;4960470;28;20034;-88
2024/03/21 10:09:13;;;;;;;17.33;8.95;;;16.70;78.60;;;;;;4945451;28;20157;-92
2024/03/21 10:11:57;;;;;;;15.98;8.93;;;17.00;76.30;;;;;;4983514;28;20038;-92
2024/03/21 10:14:32;;;;;;;29.25;9.00;;;17.20;77.50;;;;;;4975317;28;20035;-92
2024/03/21 10:17:03;;;;;;;15.90;8.88;;;17.20;77.00;;;;;;4939766;28;20559;-93
2024/03/21 10:19:32;;;;;;;12.93;8.43;;;17.70;73.30;;;;;;4923655;28;20062;-92
2024/03/21 10:21:57;;;;;;;12.32;8.07;;;17.90;70.20;;;;;;4949294;28;20038;-92
2024/03/21 10:24:30;;;;;;;11.27;8.25;;;18.20;69.90;;;;;;4962455;28;20037;-92
2024/03/21 10:27:06;;;;;;;11.60;8.45;;;18.50;68.90;;;;;;4955338;28;20133;-92
2024/03/21 10:29:32;;;;;;;14.23;8.73;;;18.80;69.40;;;;;;4981764;28;20030;-95
2024/03/21 10:31:58;;;;;;;11.60;8.00;;;18.50;66.00;;;;;;4946237;28;20516;-91
2024/03/21 10:34:25;;;;;;;13.75;7.93;;;18.70;63.50;;;;;;4937334;28;20081;-94
2024/03/21 10:36:59;;;;;;;14.05;8.57;;;18.80;65.20;;;;;;4931318;28;20034;-92
2024/03/21 10:39:30;;;;;;;12.25;8.10;;;18.70;64.10;;;;;;4958338;28;20049;-91
2024/03/21 10:42:00;;;;;;;16.83;9.05;;;18.70;64.30;;;;;;4950649;28;20035;-92
2024/03/21 10:44:31;;;;;;;16.35;8.13;;;18.90;62.80;;;;;;4981561;28;20169;-94
2024/03/21 10:47:00;;;;;;;14.73;7.57;;;18.70;63.50;;;;;;4958975;28;20037;-92
2024/03/21 10:49:26;;;;;;;21.38;8.88;;;18.80;62.20;;;;;;4938956;28;20093;-92
2024/03/21 10:51:57;;;;;;;13.10;7.97;;;18.40;63.90;;;;;;4954494;28;20022;-92
2024/03/21 10:54:23;;;;;;;14.82;7.97;;;18.50;62.40;;;;;;4948795;28;20038;-93
2024/03/21 10:57:03;;;;;;;12.93;8.05;;;18.70;63.40;;;;;;4968701;28;20062;-92
2024/03/21 10:59:30;;;;;;;12.40;9.27;;;18.70;63.30;;;;;;4984275;28;20901;-93
2024/03/21 11:01:59;;;;;;;13.48;7.63;;;18.70;63.60;;;;;;4946493;28;20518;-93
2024/03/21 11:04:40;;;;;;;13.20;6.75;;;18.30;63.80;;;;;;4941921;28;20113;-94
2024/03/21 11:07:12;;;;;;;14.32;7.90;;;17.80;66.90;;;;;;4956220;28;20031;-93
2024/03/21 11:09:37;;;;;;;11.70;6.85;;;18.00;66.90;;;;;;4938427;28;20039;-92
2024/03/21 11:12:03;;;;;;;11.80;7.88;;;18.50;63.00;;;;;;4943307;28;23208;-92
2024/03/21 11:14:34;;;;;;;13.77;8.13;;;18.60;60.40;;;;;;4979478;28;20113;-93
2024/03/21 11:17:00;;;;;;;12.70;7.55;;;18.40;62.10;;;;;;4954709;28;20041;-92
2024/03/21 11:19:29;;;;;;;13.02;7.28;;;18.50;62.30;;;;;;4946705;28;20034;-92
2024/03/21 11:22:03;;;;;;;12.45;7.57;;;18.80;62.60;;;;;;4957420;28;20034;-91
2024/03/21 11:24:28;;;;;;;13.40;6.93;;;19.10;58.60;;;;;;4956827;28;20058;-92
2024/03/21 11:26:57;;;;;;;10.23;7.13;;;19.60;58.40;;;;;;4958667;28;20058;-93
2024/03/21 11:29:23;;;;;;;9.50;5.68;;;19.70;55.60;;;;;;4986623;28;20033;-94
2024/03/21 11:32:04;;;;;;;10.30;5.85;;;19.20;53.80;;;;;;4966121;28;20396;-93
2024/03/21 11:34:38;;;;;;;15.00;4.90;;;19.20;53.40;;;;;;4969528;28;20858;-93
2024/03/21 11:37:04;;;;;;;;;;;19.00;52.60;;;;;;4970692;28;20026;-91
2024/03/21 11:39:35;;;;;;;9.30;3.08;;;19.10;46.30;;;;;;4966643;28;19914;-93
2024/03/21 11:42:17;;;;;;;3.85;2.92;;;19.20;45.50;;;;;;4965539;28;20034;-93
2024/03/21 11:44:50;;;;;;;5.63;3.33;;;19.50;43.80;;;;;;4984891;28;20781;-94
2024/03/21 11:47:16;;;;;;;4.93;2.63;;;20.00;42.70;;;;;;4983433;28;20038;-95
2024/03/21 11:49:49;;;;;;;9.68;3.92;;;20.30;43.90;;;;;;4967328;28;20023;-94
2024/03/21 11:52:17;;;;;;;6.63;3.20;;;20.10;45.00;;;;;;4968117;28;20041;-93
2024/03/21 11:54:51;;;;;;;;;;;20.00;45.70;;;;;;4974949;28;20015;-94
2024/03/21 11:57:17;;;;;;;6.75;3.65;;;20.00;46.70;;;;;;4970889;28;19913;-92
2024/03/21 11:59:53;;;;;;;5.88;2.95;;;20.20;46.90;;;;;;4995940;28;20029;-93
2024/03/21 12:02:24;;;;;;;5.13;3.03;;;21.00;43.40;;;;;;4989346;28;20727;-92
2024/03/21 12:05:04;;;;;;;4.68;2.85;;;21.10;41.30;;;;;;4960265;28;20108;-92
2024/03/21 12:07:41;;;;;;;;;;;20.90;39.40;;;;;;4962822;28;20033;-92
2024/03/21 12:10:20;;;;;;;4.25;2.78;;;21.40;39.60;;;;;;4968334;28;19924;-91
2024/03/21 12:12:52;;;;;;;5.20;2.55;;;21.60;38.20;;;;;;4961895;28;20039;-93
2024/03/21 12:15:19;;;;;;;3.40;1.80;;;21.00;39.40;;;;;;4960156;28;20030;-92
2024/03/21 12:17:47;;;;;;;4.90;2.50;;;21.20;39.00;;;;;;4973045;28;20386;-92
2024/03/21 12:20:13;;;;;;;7.25;2.50;;;20.80;38.70;;;;;;4976307;28;20045;-89
2024/03/21 12:22:39;;;;;;;3.60;1.52;;;21.50;37.60;;;;;;4948159;28;20026;-91
2024/03/21 12:25:11;;;;;;;4.20;1.65;;;21.80;34.50;;;;;;4954027;28;20098;-93
2024/03/21 12:27:42;;;;;;;3.72;1.23;;;21.70;33.30;;;;;;4957820;28;21299;-93
2024/03/21 12:30:11;;;;;;;3.53;1.38;;;21.20;32.70;;;;;;4948917;28;20037;-91
2024/03/21 12:33:06;;;;;;;3.20;1.52;;;21.30;31.60;;;;;;4984958;28;20049;-91
2024/03/21 12:35:31;;;;;;;3.42;2.15;;;21.80;31.10;;;;;;4990385;28;20010;-91
2024/03/21 12:38:26;;;;;;;4.57;3.08;;;22.30;32.10;;;;;;4980587;28;20026;-91
2024/03/21 12:40:55;;;;;;;4.30;2.05;;;22.60;33.90;;;;;;4957467;28;20050;-89
2024/03/21 12:43:21;;;;;;;2.70;1.40;;;22.60;31.70;;;;;;4964053;28;20023;-90
2024/03/21 12:45:49;;;;;;;4.85;2.10;;;22.60;33.40;;;;;;4956403;28;20416;-90
2024/03/21 12:48:17;;;;;;;2.78;1.50;;;22.80;33.80;;;;;;4952691;28;21394;-92
2024/03/21 12:50:50;;;;;;;4.57;2.20;;;22.50;35.30;;;;;;4982955;28;20058;-90
2024/03/21 12:53:18;;;;;;;3.50;2.38;;;22.30;34.20;;;;;;4982880;28;20035;-92
2024/03/21 12:55:47;;;;;;;5.60;2.50;;;22.20;34.00;;;;;;4953514;28;20665;-92
2024/03/21 12:58:16;;;;;;;5.70;2.58;;;22.10;31.60;;;;;;4946655;28;20178;-92